createdAt,value
2022-10-04T00:00:41.881Z,10.33
2022-10-04T00:03:14.226Z,10.42
2022-10-04T00:05:42.456Z,10.32
2022-10-04T00:08:23.543Z,10.28
2022-10-04T00:10:53.191Z,10.24
2022-10-04T00:13:24.864Z,10.23
2022-10-04T00:15:53.116Z,10.14
2022-10-04T00:18:25.563Z,10.14
2022-10-04T00:20:59.702Z,10.28
2022-10-04T00:23:30.557Z,10.26
2022-10-04T00:25:59.923Z,10.41
2022-10-04T00:28:31.448Z,10.48
2022-10-04T00:31:15.508Z,10.58
2022-10-04T00:33:45.589Z,10.55
2022-10-04T00:36:37.817Z,10.65
2022-10-04T00:39:16.877Z,10.66
2022-10-04T00:41:55.548Z,10.64
2022-10-04T00:44:25.208Z,10.71
2022-10-04T00:46:53.401Z,10.59
2022-10-04T00:49:24.221Z,10.64
2022-10-04T00:51:54.208Z,10.46
2022-10-04T00:54:23.680Z,10.75
2022-10-04T00:56:53.608Z,10.81
2022-10-04T00:59:30.611Z,10.93
2022-10-04T01:02:02.229Z,10.72
2022-10-04T01:04:36.193Z,10.62
2022-10-04T01:07:04.875Z,10.63
2022-10-04T01:09:33.305Z,10.62
2022-10-04T01:12:03.747Z,10.82
2022-10-04T01:14:36.794Z,10.90
2022-10-04T01:17:05.357Z,10.91
2022-10-04T01:19:34.927Z,10.87
2022-10-04T01:22:11.848Z,10.82
2022-10-04T01:24:42.033Z,10.85
2022-10-04T01:27:34.005Z,10.79
2022-10-04T01:30:02.721Z,10.85
2022-10-04T01:32:31.704Z,10.79
2022-10-04T01:34:59.957Z,10.74
2022-10-04T01:37:28.219Z,10.67
2022-10-04T01:39:57.792Z,10.65
2022-10-04T01:42:28.985Z,10.61
2022-10-04T01:44:59.310Z,10.62
2022-10-04T01:47:31.303Z,10.43
2022-10-04T01:50:00.209Z,10.45
2022-10-04T01:52:29.656Z,10.49
2022-10-04T01:55:02.958Z,10.56
2022-10-04T01:57:34.802Z,10.60
2022-10-04T02:00:04.769Z,10.59
2022-10-04T02:02:35.843Z,10.59
2022-10-04T02:05:04.600Z,10.62
2022-10-04T02:07:33.631Z,10.56
2022-10-04T02:10:06.612Z,10.53
2022-10-04T02:12:35.027Z,10.56
2022-10-04T02:15:04.562Z,10.28
2022-10-04T02:17:34.244Z,10.38
2022-10-04T02:20:02.692Z,10.47
2022-10-04T02:22:31.346Z,10.36
2022-10-04T02:24:59.553Z,10.25
2022-10-04T02:27:30.199Z,10.30
2022-10-04T02:30:02.284Z,10.29
2022-10-04T02:32:46.263Z,10.36
2022-10-04T02:35:14.450Z,10.21
2022-10-04T02:37:42.669Z,10.21
2022-10-04T02:40:13.011Z,10.36
2022-10-04T02:42:44.004Z,10.48
2022-10-04T02:45:32.927Z,10.50
2022-10-04T02:48:03.401Z,10.32
2022-10-04T02:50:32.427Z,10.42
2022-10-04T02:53:02.744Z,10.35
2022-10-04T02:55:31.612Z,10.30
2022-10-04T02:58:01.314Z,10.25
2022-10-04T03:00:30.455Z,10.33
2022-10-04T03:03:12.994Z,10.18
2022-10-04T03:05:41.216Z,10.13
2022-10-04T03:08:09.444Z,10.08
2022-10-04T03:10:37.656Z,10.14
2022-10-04T03:13:07.570Z,10.21
2022-10-04T03:15:35.794Z,10.24
2022-10-04T03:18:03.982Z,10.26
2022-10-04T03:20:50.560Z,10.25
2022-10-04T03:23:19.135Z,10.24
2022-10-04T03:25:51.718Z,10.22
2022-10-04T03:28:21.363Z,10.16
2022-10-04T03:30:50.381Z,10.35
2022-10-04T03:33:21.029Z,10.31
2022-10-04T03:35:51.785Z,10.22
2022-10-04T03:38:20.057Z,10.19
2022-10-04T03:40:53.352Z,10.26
2022-10-04T03:43:25.040Z,10.37
2022-10-04T03:45:53.534Z,10.18
2022-10-04T03:48:30.461Z,10.32
2022-10-04T03:50:58.711Z,10.40
2022-10-04T03:53:31.107Z,10.44
2022-10-04T03:56:04.018Z,10.28
2022-10-04T03:58:34.342Z,10.30
2022-10-04T04:01:13.978Z,10.44
2022-10-04T04:03:48.744Z,10.50
2022-10-04T04:06:17.819Z,10.46
2022-10-04T04:08:47.029Z,10.43
2022-10-04T04:11:18.978Z,10.21
2022-10-04T04:13:51.058Z,10.19
2022-10-04T04:16:20.889Z,10.12
2022-10-04T04:18:49.938Z,10.28
2022-10-04T04:21:19.919Z,10.21
2022-10-04T04:23:50.552Z,10.34
2022-10-04T04:26:21.240Z,10.55
2022-10-04T04:28:52.387Z,10.47
2022-10-04T04:31:22.946Z,10.44
2022-10-04T04:33:53.616Z,10.57
2022-10-04T04:36:22.290Z,10.52
2022-10-04T04:39:04.358Z,10.40
2022-10-04T04:41:33.566Z,10.28
2022-10-04T04:44:03.313Z,10.08
2022-10-04T04:46:31.789Z,10.05
2022-10-04T04:49:02.746Z,10.27
2022-10-04T04:51:31.739Z,10.17
2022-10-04T04:53:59.951Z,9.99
2022-10-04T04:56:29.623Z,9.83
2022-10-04T04:58:59.716Z,9.94
2022-10-04T05:01:30.140Z,9.90
2022-10-04T05:04:03.469Z,9.95
2022-10-04T05:06:32.253Z,9.79
2022-10-04T05:09:00.489Z,9.95
2022-10-04T05:11:31.212Z,10.09
2022-10-04T05:14:00.941Z,10.09
2022-10-04T05:16:33.883Z,10.07
2022-10-04T05:19:03.183Z,9.99
2022-10-04T05:21:33.104Z,9.72
2022-10-04T05:24:09.964Z,9.74
2022-10-04T05:26:38.541Z,9.67
2022-10-04T05:29:09.613Z,9.83
2022-10-04T05:32:00.851Z,9.93
2022-10-04T05:34:30.250Z,9.77
2022-10-04T05:37:07.183Z,9.93
2022-10-04T05:39:38.519Z,9.95
2022-10-04T05:44:59.433Z,9.86
2022-10-04T05:47:31.681Z,9.87
2022-10-04T05:50:01.192Z,9.91
2022-10-04T05:52:31.128Z,9.79
2022-10-04T05:55:17.794Z,9.97
2022-10-04T05:57:50.920Z,9.76
2022-10-04T06:00:19.587Z,9.67
2022-10-04T06:03:08.571Z,9.74
2022-10-04T06:05:44.104Z,9.88
2022-10-04T06:08:18.651Z,9.67
2022-10-04T06:10:58.771Z,9.72
2022-10-04T06:13:52.246Z,9.72
2022-10-04T06:16:46.228Z,9.58
2022-10-04T06:19:32.001Z,9.83
2022-10-04T06:22:18.924Z,9.88
2022-10-04T06:24:49.492Z,9.85
2022-10-04T06:27:21.179Z,9.89
2022-10-04T06:29:51.152Z,9.89
2022-10-04T06:32:41.365Z,10.04
2022-10-04T06:35:17.613Z,9.97
2022-10-04T06:37:56.192Z,9.99
2022-10-04T06:40:32.841Z,10.00
2022-10-04T06:43:10.616Z,9.98
2022-10-04T06:45:45.767Z,10.04
2022-10-04T06:48:23.943Z,10.22
2022-10-04T06:50:55.979Z,10.17
2022-10-04T06:53:27.951Z,10.24
2022-10-04T06:56:07.233Z,10.29
2022-10-04T06:58:55.615Z,10.25
2022-10-04T07:01:25.969Z,10.32
2022-10-04T07:03:55.947Z,10.32
2022-10-04T07:06:27.434Z,10.43
2022-10-04T07:08:59.775Z,10.57
2022-10-04T07:11:30.359Z,10.68
2022-10-04T07:14:00.599Z,10.67
2022-10-04T07:16:33.503Z,10.66
2022-10-04T07:19:12.718Z,10.75
2022-10-04T07:21:49.224Z,10.64
2022-10-04T07:24:21.751Z,10.71
2022-10-04T07:26:51.525Z,10.60
2022-10-04T07:29:24.200Z,10.67
2022-10-04T07:31:54.736Z,10.93
2022-10-04T07:34:25.295Z,11.13
2022-10-04T07:36:56.708Z,11.33
2022-10-04T07:39:26.610Z,11.33
2022-10-04T07:44:48.478Z,11.29
2022-10-04T07:47:20.528Z,11.46
2022-10-04T07:49:50.527Z,11.44
2022-10-04T07:52:32.952Z,11.50
2022-10-04T07:55:06.852Z,11.43
2022-10-04T07:57:39.238Z,11.48
2022-10-04T08:00:30.918Z,11.59
2022-10-04T08:03:12.336Z,11.58
2022-10-04T08:05:42.890Z,11.62
2022-10-04T08:08:22.898Z,11.80
2022-10-04T08:10:57.442Z,11.93
2022-10-04T08:13:29.547Z,11.99
2022-10-04T08:16:01.543Z,11.97
2022-10-04T08:18:52.822Z,12.22
2022-10-04T08:21:26.924Z,11.99
2022-10-04T08:24:03.670Z,12.03
2022-10-04T08:26:41.903Z,12.22
2022-10-04T08:29:35.366Z,12.34
2022-10-04T08:32:06.365Z,12.14
2022-10-04T08:34:45.086Z,12.30
2022-10-04T08:37:18.606Z,12.30
2022-10-04T08:40:19.194Z,12.39
2022-10-04T08:43:25.051Z,12.30
2022-10-04T08:46:09.751Z,12.32
2022-10-04T08:49:01.494Z,12.20
2022-10-04T08:51:52.439Z,12.56
2022-10-04T08:54:40.523Z,12.24
2022-10-04T08:57:24.222Z,12.44
2022-10-04T09:00:14.011Z,12.33
2022-10-04T09:02:56.540Z,12.08
2022-10-04T09:05:43.628Z,12.21
2022-10-04T09:08:36.569Z,12.05
2022-10-04T09:11:17.898Z,12.15
2022-10-04T09:13:54.466Z,12.40
2022-10-04T09:16:26.368Z,12.28
2022-10-04T09:19:20.507Z,12.47
2022-10-04T09:22:19.763Z,12.46
2022-10-04T09:25:02.306Z,12.65
2022-10-04T09:27:55.976Z,12.61
2022-10-04T09:30:33.381Z,12.81
2022-10-04T09:33:09.679Z,12.67
2022-10-04T09:35:57.035Z,12.88
2022-10-04T09:41:40.899Z,12.88
2022-10-04T09:44:44.929Z,12.91
2022-10-04T09:47:31.340Z,12.94
2022-10-04T09:50:14.189Z,13.10
2022-10-04T09:52:45.991Z,13.28
2022-10-04T09:55:21.899Z,12.99
2022-10-04T09:58:02.172Z,13.25
2022-10-04T10:00:33.419Z,13.47
2022-10-04T10:03:23.695Z,13.43
2022-10-04T10:06:10.510Z,13.66
2022-10-04T10:08:42.646Z,13.71
2022-10-04T10:11:28.611Z,13.88
2022-10-04T10:14:07.870Z,13.61
2022-10-04T10:16:42.624Z,13.53
2022-10-04T10:19:32.688Z,13.62
2022-10-04T10:22:11.106Z,13.97
2022-10-04T10:25:10.946Z,14.12
2022-10-04T10:27:52.533Z,14.14
2022-10-04T10:30:24.830Z,14.10
2022-10-04T10:33:06.912Z,14.07
2022-10-04T10:35:46.460Z,14.07
2022-10-04T10:38:25.041Z,14.02
2022-10-04T10:41:06.211Z,14.26
2022-10-04T10:43:46.652Z,14.06
2022-10-04T10:46:27.800Z,14.15
2022-10-04T10:49:16.944Z,14.76
2022-10-04T10:54:56.767Z,14.71
2022-10-04T10:57:37.383Z,14.77
2022-10-04T11:00:21.719Z,15.01
2022-10-04T11:03:13.586Z,15.03
2022-10-04T11:06:05.418Z,14.67
2022-10-04T11:08:52.350Z,14.59
2022-10-04T11:11:29.015Z,14.72
2022-10-04T11:14:11.946Z,14.91
2022-10-04T11:16:54.962Z,15.29
2022-10-04T11:19:50.644Z,15.42
2022-10-04T11:22:50.557Z,15.39
2022-10-04T11:25:27.672Z,15.42
2022-10-04T11:27:57.525Z,15.78
2022-10-04T11:30:26.595Z,15.58
2022-10-04T11:33:18.685Z,15.56
2022-10-04T11:35:55.886Z,15.26
2022-10-04T11:38:32.306Z,15.52
2022-10-04T11:41:11.141Z,15.44
2022-10-04T11:44:02.688Z,15.44
2022-10-04T11:46:50.539Z,15.83
2022-10-04T11:49:35.851Z,15.65
2022-10-04T11:52:21.097Z,15.99
2022-10-04T11:54:58.965Z,15.81
2022-10-04T11:57:32.765Z,16.01
2022-10-04T12:00:06.625Z,16.20
2022-10-04T12:02:50.648Z,16.21
2022-10-04T12:05:25.146Z,16.13
2022-10-04T12:08:16.739Z,16.26
2022-10-04T12:10:47.137Z,16.24
2022-10-04T12:13:29.546Z,16.31
2022-10-04T12:16:06.759Z,16.25
2022-10-04T12:18:52.665Z,16.57
2022-10-04T12:21:29.099Z,16.35
2022-10-04T12:24:10.633Z,16.55
2022-10-04T12:27:00.469Z,16.23
2022-10-04T12:29:45.587Z,16.28
2022-10-04T12:32:15.682Z,16.22
2022-10-04T12:37:36.977Z,16.24
2022-10-04T12:40:15.770Z,16.21
2022-10-04T12:42:47.461Z,16.36
2022-10-04T12:45:27.912Z,16.48
2022-10-04T12:48:09.766Z,16.57
2022-10-04T12:50:48.090Z,16.61
2022-10-04T12:53:21.994Z,16.69
2022-10-04T12:56:02.331Z,16.65
2022-10-04T12:58:34.097Z,16.94
2022-10-04T13:01:07.032Z,16.90
2022-10-04T13:03:41.659Z,16.97
2022-10-04T13:06:14.548Z,16.86
2022-10-04T13:08:50.353Z,17.14
2022-10-04T13:11:27.677Z,17.05
2022-10-04T13:14:05.816Z,17.27
2022-10-04T13:19:36.053Z,17.15
2022-10-04T13:22:31.906Z,17.10
2022-10-04T13:25:33.818Z,17.44
2022-10-04T13:28:03.233Z,17.16
2022-10-04T13:30:34.302Z,17.30
2022-10-04T13:33:07.748Z,17.61
2022-10-04T13:35:38.327Z,17.64
2022-10-04T13:38:25.059Z,17.66
2022-10-04T13:41:01.319Z,17.47
2022-10-04T13:43:38.073Z,17.53
2022-10-04T13:46:11.866Z,17.35
2022-10-04T13:48:48.969Z,17.41
2022-10-04T13:51:33.794Z,17.48
2022-10-04T13:54:23.294Z,17.47
2022-10-04T13:56:59.028Z,17.84
2022-10-04T13:59:35.155Z,17.95
2022-10-04T14:02:14.430Z,17.75
2022-10-04T14:04:53.910Z,17.72
2022-10-04T14:07:35.733Z,17.77
2022-10-04T14:10:13.127Z,17.95
2022-10-04T14:13:03.163Z,17.74
2022-10-04T14:15:41.347Z,17.76
2022-10-04T14:18:27.292Z,17.68
2022-10-04T14:21:18.906Z,17.63
2022-10-04T14:24:05.795Z,17.73
2022-10-04T14:26:42.800Z,17.64
2022-10-04T14:29:24.219Z,17.87
2022-10-04T14:32:06.474Z,17.82
2022-10-04T14:34:45.366Z,17.65
2022-10-04T14:37:38.765Z,17.76
2022-10-04T14:40:20.085Z,18.21
2022-10-04T14:43:01.640Z,18.26
2022-10-04T14:45:35.397Z,18.11
2022-10-04T14:48:18.200Z,18.11
2022-10-04T14:50:53.076Z,18.29
2022-10-04T14:53:25.581Z,18.06
2022-10-04T14:56:07.124Z,18.06
2022-10-04T14:58:41.122Z,18.17
2022-10-04T15:01:19.678Z,18.37
2022-10-04T15:03:55.618Z,18.37
2022-10-04T15:06:30.500Z,18.19
2022-10-04T15:09:19.116Z,17.97
2022-10-04T15:12:21.541Z,18.10
2022-10-04T15:14:43.426Z,18.11
2022-10-04T15:17:12.772Z,18.10
2022-10-04T15:19:59.140Z,18.20
2022-10-04T15:22:28.390Z,18.05
2022-10-04T15:24:59.627Z,18.08
2022-10-04T15:27:50.875Z,18.06
2022-10-04T15:30:22.442Z,18.30
2022-10-04T15:32:55.361Z,18.30
2022-10-04T15:35:28.724Z,18.28
2022-10-04T15:37:59.733Z,17.89
2022-10-04T15:40:38.085Z,17.71
2022-10-04T15:43:16.652Z,17.66
2022-10-04T15:46:02.940Z,17.83
2022-10-04T15:48:40.905Z,17.73
2022-10-04T15:51:14.066Z,17.44
2022-10-04T15:53:50.625Z,17.28
2022-10-04T15:56:26.952Z,17.35
2022-10-04T15:59:01.514Z,17.30
2022-10-04T16:01:42.926Z,17.29
2022-10-04T16:04:20.016Z,17.25
2022-10-04T16:06:51.183Z,17.28
2022-10-04T16:09:24.103Z,17.08
2022-10-04T16:11:59.076Z,16.96
2022-10-04T16:14:34.779Z,17.02
2022-10-04T16:17:13.064Z,16.80
2022-10-04T16:19:53.295Z,16.84
2022-10-04T16:22:35.127Z,16.72
2022-10-04T16:25:33.215Z,16.79
2022-10-04T16:28:06.524Z,16.84
2022-10-04T16:30:37.223Z,16.62
2022-10-04T16:33:21.438Z,16.55
2022-10-04T16:35:50.813Z,16.56
2022-10-04T16:38:24.445Z,16.45
2022-10-04T16:41:02.967Z,16.48
2022-10-04T16:43:32.677Z,16.58
2022-10-04T16:46:12.187Z,16.57
2022-10-04T16:48:51.327Z,16.55
2022-10-04T16:51:37.017Z,16.38
2022-10-04T16:54:11.110Z,16.03
2022-10-04T16:57:09.858Z,16.06
2022-10-04T16:59:48.944Z,16.12
2022-10-04T17:02:26.633Z,16.13
2022-10-04T17:05:04.082Z,16.08
2022-10-04T17:07:40.226Z,16.03
2022-10-04T17:10:21.334Z,15.86
2022-10-04T17:12:53.478Z,15.81
2022-10-04T17:15:35.160Z,15.73
2022-10-04T17:18:14.291Z,15.66
2022-10-04T17:20:49.225Z,15.56
2022-10-04T17:23:25.424Z,15.47
2022-10-04T17:25:57.980Z,15.34
2022-10-04T17:28:30.778Z,15.29
2022-10-04T17:31:04.289Z,15.19
2022-10-04T17:33:38.089Z,15.24
2022-10-04T17:36:18.556Z,15.09
2022-10-04T17:38:51.807Z,14.97
2022-10-04T17:41:25.547Z,14.97
2022-10-04T17:44:12.408Z,15.01
2022-10-04T17:46:43.974Z,15.00
2022-10-04T17:49:47.103Z,14.95
2022-10-04T17:52:31.460Z,14.89
2022-10-04T17:55:15.045Z,14.70
2022-10-04T17:57:44.281Z,14.80
2022-10-04T18:00:13.783Z,14.68
2022-10-04T18:03:01.943Z,14.79
2022-10-04T18:05:31.169Z,14.72
2022-10-04T18:08:01.306Z,14.66
2022-10-04T18:10:31.598Z,14.68
2022-10-04T18:13:00.925Z,14.62
2022-10-04T18:15:30.939Z,14.48
2022-10-04T18:18:13.304Z,14.47
2022-10-04T18:20:58.100Z,14.56
2022-10-04T18:23:27.521Z,14.49
2022-10-04T18:25:58.393Z,14.44
2022-10-04T18:28:26.623Z,14.45
2022-10-04T18:30:59.347Z,14.32
2022-10-04T18:33:32.743Z,14.38
2022-10-04T18:36:04.955Z,14.26
2022-10-04T18:38:33.706Z,14.30
2022-10-04T18:41:02.592Z,14.12
2022-10-04T18:43:49.801Z,14.13
2022-10-04T18:46:21.595Z,14.13
2022-10-04T18:49:05.607Z,14.07
2022-10-04T18:51:55.218Z,14.03
2022-10-04T18:54:26.497Z,14.02
2022-10-04T18:56:58.398Z,13.98
2022-10-04T18:59:47.207Z,14.00
2022-10-04T19:02:20.516Z,14.01
2022-10-04T19:04:57.498Z,14.05
2022-10-04T19:07:30.566Z,13.98
2022-10-04T19:10:05.411Z,13.98
2022-10-04T19:12:37.996Z,14.06
2022-10-04T19:15:12.943Z,13.98
2022-10-04T19:17:46.079Z,14.01
2022-10-04T19:20:19.040Z,14.02
2022-10-04T19:22:52.029Z,14.00
2022-10-04T19:25:48.682Z,14.05
2022-10-04T19:28:27.064Z,14.03
2022-10-04T19:31:01.462Z,13.89
2022-10-04T19:33:35.936Z,14.03
2022-10-04T19:36:14.400Z,13.94
2022-10-04T19:38:53.643Z,14.03
2022-10-04T19:41:27.242Z,13.84
2022-10-04T19:46:44.957Z,13.77
2022-10-04T19:49:25.313Z,13.71
2022-10-04T19:51:56.200Z,13.73
2022-10-04T19:54:29.547Z,13.69
2022-10-04T19:56:57.735Z,13.71
2022-10-04T19:59:28.865Z,13.63
2022-10-04T20:01:57.159Z,13.56
2022-10-04T20:04:38.076Z,13.68
2022-10-04T20:07:11.685Z,13.73
2022-10-04T20:09:54.875Z,13.66
2022-10-04T20:12:31.869Z,13.56
2022-10-04T20:15:26.596Z,13.55
2022-10-04T20:17:56.484Z,13.51
2022-10-04T20:20:54.207Z,13.62
2022-10-04T20:23:56.614Z,13.55
2022-10-04T20:26:53.711Z,13.39
2022-10-04T20:29:52.838Z,13.30
2022-10-04T20:32:51.013Z,13.35
2022-10-04T20:35:49.084Z,13.28
2022-10-04T20:38:32.079Z,13.29
2022-10-04T20:41:02.397Z,13.38
2022-10-04T20:43:33.782Z,13.27
2022-10-04T20:46:03.206Z,13.34
2022-10-04T20:48:33.221Z,13.34
2022-10-04T20:51:09.059Z,13.45
2022-10-04T20:53:37.529Z,13.36
2022-10-04T20:56:17.479Z,13.27
2022-10-04T20:58:48.447Z,13.14
2022-10-04T21:01:41.186Z,13.05
2022-10-04T21:04:15.603Z,13.03
2022-10-04T21:06:52.764Z,12.98
2022-10-04T21:09:21.003Z,13.01
2022-10-04T21:11:51.833Z,13.02
2022-10-04T21:14:23.831Z,12.94
2022-10-04T21:16:55.613Z,12.93
2022-10-04T21:19:31.767Z,12.92
2022-10-04T21:22:00.415Z,12.85
2022-10-04T21:24:33.773Z,12.82
2022-10-04T21:27:03.412Z,12.79
2022-10-04T21:29:31.690Z,12.84
2022-10-04T21:32:00.045Z,12.89
2022-10-04T21:34:51.880Z,12.98
2022-10-04T21:37:16.517Z,12.81
2022-10-04T21:39:44.746Z,12.75
2022-10-04T21:42:14.312Z,12.67
2022-10-04T21:44:42.785Z,12.73
2022-10-04T21:47:11.024Z,12.65
2022-10-04T21:49:39.206Z,12.79
2022-10-04T21:52:07.384Z,12.81
2022-10-04T21:54:36.034Z,12.75
2022-10-04T21:57:04.210Z,12.68
2022-10-04T21:59:33.781Z,12.75
2022-10-04T22:02:02.049Z,12.68
2022-10-04T22:04:30.277Z,12.62
2022-10-04T22:07:16.160Z,12.67
2022-10-04T22:09:44.351Z,12.58
2022-10-04T22:12:12.606Z,12.55
2022-10-04T22:14:42.179Z,12.51
2022-10-04T22:17:10.654Z,12.55
2022-10-04T22:19:38.842Z,12.45
2022-10-04T22:22:07.046Z,12.54
2022-10-04T22:24:35.247Z,12.49
2022-10-04T22:27:03.960Z,12.47
2022-10-04T22:29:34.999Z,12.46
2022-10-04T22:32:10.970Z,12.48
2022-10-04T22:34:39.202Z,12.46
2022-10-04T22:37:07.402Z,12.40
2022-10-04T22:39:35.896Z,12.34
2022-10-04T22:42:04.104Z,12.33
2022-10-04T22:44:35.351Z,12.34
2022-10-04T22:47:06.186Z,12.23
2022-10-04T22:49:35.458Z,12.29
2022-10-04T22:52:05.602Z,12.17
2022-10-04T22:54:34.387Z,12.17
2022-10-04T22:57:02.627Z,12.13
2022-10-04T22:59:35.133Z,12.19
2022-10-04T23:02:08.071Z,12.06
2022-10-04T23:04:36.295Z,12.19
2022-10-04T23:07:04.821Z,12.20
2022-10-04T23:09:33.028Z,12.19
2022-10-04T23:12:19.541Z,12.23
2022-10-04T23:14:48.036Z,12.22
2022-10-04T23:17:24.831Z,12.21
2022-10-04T23:19:55.384Z,12.25
2022-10-04T23:22:26.514Z,12.35
2022-10-04T23:24:54.749Z,12.38
2022-10-04T23:27:22.959Z,12.41
2022-10-04T23:29:52.256Z,12.48
2022-10-04T23:32:21.832Z,12.29
2022-10-04T23:34:56.247Z,12.18
2022-10-04T23:37:26.643Z,12.20
2022-10-04T23:39:54.876Z,12.16
2022-10-04T23:42:28.975Z,12.13
2022-10-04T23:44:57.792Z,12.17
2022-10-04T23:47:35.948Z,12.21
2022-10-04T23:50:06.063Z,12.17
2022-10-04T23:52:37.592Z,12.18
2022-10-04T23:55:11.897Z,12.21
2022-10-04T23:57:40.389Z,12.03
